Time;durP1;ratioP1;P1;durP2;ratioP2;P2;SDS_P1;SDS_P2;PMS_P1;PMS_P2;Temp;Humidity;BMP_temperature;BMP_pressure;BME280_temperature;BME280_humidity;BME280_pressure;Samples;Min_cycle;Max_cycle;Signal;HPM_P1;HPM_P2
2022/05/22 00:00:40;;;;;;;17.25;6.28;;;13.60;63.60;;;;;;5089711;28;20186;-55
2022/05/22 00:03:13;;;;;;;16.67;5.65;;;13.70;64.10;;;;;;5089304;28;20255;-56
2022/05/22 00:05:43;;;;;;;12.30;4.63;;;13.70;64.70;;;;;;5089330;28;20194;-56
2022/05/22 00:08:14;;;;;;;14.23;4.43;;;13.70;64.90;;;;;;5088533;28;20190;-56
2022/05/22 00:10:44;;;;;;;17.63;4.95;;;13.80;65.00;;;;;;5089418;28;20218;-55
2022/05/22 00:13:15;;;;;;;12.63;4.65;;;13.80;65.00;;;;;;5089387;28;20214;-55
2022/05/22 00:18:30;;;;;;;18.98;6.20;;;14.00;65.30;;;;;;5088703;28;20600;-55
2022/05/22 00:21:01;;;;;;;22.73;5.60;;;14.00;65.70;;;;;;5086840;28;20191;-56
2022/05/22 00:23:33;;;;;;;18.13;6.00;;;14.00;65.80;;;;;;5087731;28;20319;-56
2022/05/22 00:26:03;;;;;;;17.38;6.35;;;14.10;66.00;;;;;;5088439;28;20198;-57
2022/05/22 00:28:34;;;;;;;15.65;5.53;;;14.10;66.00;;;;;;5088541;28;20267;-55
2022/05/22 00:31:04;;;;;;;16.00;5.28;;;14.20;66.20;;;;;;5088171;28;20191;-56
2022/05/22 00:33:37;;;;;;;16.17;5.40;;;14.30;66.00;;;;;;5088765;28;20274;-54
2022/05/22 00:36:07;;;;;;;19.20;6.10;;;14.30;65.50;;;;;;5088201;28;20248;-56
2022/05/22 00:38:38;;;;;;;13.27;4.68;;;14.30;65.20;;;;;;5089331;28;20190;-56
2022/05/22 00:41:09;;;;;;;14.88;4.47;;;14.40;64.90;;;;;;5091183;28;20190;-49
2022/05/22 00:43:42;;;;;;;12.10;4.30;;;14.40;64.80;;;;;;5091131;28;20608;-57
2022/05/22 00:46:14;;;;;;;11.10;4.05;;;14.40;64.80;;;;;;5091191;28;20255;-56
2022/05/22 00:48:49;;;;;;;11.60;3.97;;;14.50;64.80;;;;;;5091932;28;20194;-57
2022/05/22 00:51:23;;;;;;;15.35;4.40;;;14.50;64.70;;;;;;5091563;28;20193;-57
2022/05/22 00:53:58;;;;;;;14.57;4.25;;;14.50;64.50;;;;;;5083324;28;20214;-57
2022/05/22 00:56:35;;;;;;;12.48;4.50;;;14.50;64.40;;;;;;5069671;28;20495;-57
2022/05/22 00:59:11;;;;;;;10.98;3.97;;;14.50;65.10;;;;;;5086602;28;20190;-57
2022/05/22 01:01:43;;;;;;;15.13;4.18;;;14.60;64.60;;;;;;5087343;28;20238;-57
2022/05/22 01:04:21;;;;;;;12.50;3.78;;;14.70;64.20;;;;;;5087186;28;20291;-58
2022/05/22 01:06:53;;;;;;;9.35;3.33;;;14.70;63.80;;;;;;5087837;28;20194;-57
2022/05/22 01:09:24;;;;;;;7.72;3.30;;;14.80;63.50;;;;;;5085195;28;20685;-57
2022/05/22 01:11:57;;;;;;;10.75;3.83;;;14.80;63.30;;;;;;5086752;28;20190;-57
2022/05/22 01:14:31;;;;;;;11.30;3.45;;;14.80;63.00;;;;;;5088604;28;20556;-56
2022/05/22 01:17:05;;;;;;;9.85;3.30;;;14.90;62.90;;;;;;5087970;28;20201;-58
2022/05/22 01:19:38;;;;;;;8.90;3.45;;;14.90;62.60;;;;;;5088804;28;20185;-57
2022/05/22 01:22:12;;;;;;;9.07;3.35;;;14.90;62.40;;;;;;5088049;28;20202;-58
2022/05/22 01:24:43;;;;;;;8.20;3.25;;;15.00;62.40;;;;;;5088266;28;20225;-57
2022/05/22 01:27:17;;;;;;;7.70;3.28;;;15.00;62.30;;;;;;5085729;28;20199;-57
2022/05/22 01:29:47;;;;;;;9.18;3.13;;;15.00;62.00;;;;;;5088385;28;20187;-57
2022/05/22 01:32:18;;;;;;;9.30;3.45;;;15.00;61.90;;;;;;5085414;28;20235;-57
2022/05/22 01:34:48;;;;;;;9.32;3.60;;;15.00;61.80;;;;;;5088523;28;20213;-58
2022/05/22 01:37:21;;;;;;;9.15;3.38;;;15.10;61.70;;;;;;5087829;28;20255;-58
2022/05/22 01:39:52;;;;;;;7.40;3.65;;;15.10;61.50;;;;;;5087289;28;20588;-57
2022/05/22 01:42:22;;;;;;;9.68;3.40;;;15.20;61.40;;;;;;5087431;28;20587;-57
2022/05/22 01:44:53;;;;;;;7.88;3.30;;;15.10;61.20;;;;;;5087840;28;20709;-58
2022/05/22 01:47:23;;;;;;;5.97;2.78;;;15.20;61.20;;;;;;5088461;28;20198;-57
2022/05/22 01:49:54;;;;;;;8.30;3.00;;;15.20;61.10;;;;;;5087799;28;20267;-58
2022/05/22 01:52:26;;;;;;;4.47;2.70;;;15.20;61.00;;;;;;5087835;28;20236;-57
2022/05/22 01:54:57;;;;;;;7.80;2.97;;;15.30;61.00;;;;;;5086660;28;20273;-58
2022/05/22 01:57:28;;;;;;;6.72;3.00;;;15.30;60.90;;;;;;5087780;28;20631;-58
2022/05/22 01:59:59;;;;;;;7.07;2.95;;;15.30;60.80;;;;;;5087113;28;20197;-57
2022/05/22 02:02:29;;;;;;;6.50;3.05;;;15.30;60.70;;;;;;5091369;28;20202;-58
2022/05/22 02:05:02;;;;;;;7.13;3.13;;;15.40;60.70;;;;;;5091643;28;20222;-57
2022/05/22 02:10:22;;;;;;;8.02;3.13;;;15.40;61.30;;;;;;5092408;28;20201;-58
2022/05/22 02:12:53;;;;;;;8.77;3.00;;;15.50;60.40;;;;;;5091243;28;20218;-58
2022/05/22 02:15:24;;;;;;;7.32;2.75;;;15.50;60.30;;;;;;5091700;28;20638;-57
2022/05/22 02:17:55;;;;;;;6.25;3.15;;;15.50;60.30;;;;;;5091125;28;20195;-57
2022/05/22 02:20:26;;;;;;;5.40;3.15;;;15.50;60.20;;;;;;5091678;28;20611;-57
2022/05/22 02:23:00;;;;;;;4.85;2.65;;;15.50;60.10;;;;;;5090539;28;20212;-58
2022/05/22 02:25:32;;;;;;;5.75;2.90;;;15.60;60.10;;;;;;5091386;28;20226;-57
2022/05/22 02:28:03;;;;;;;7.53;3.15;;;15.60;60.00;;;;;;5090655;28;20255;-57
2022/05/22 02:30:35;;;;;;;4.78;2.72;;;15.60;59.90;;;;;;5091307;28;20234;-57
2022/05/22 02:33:06;;;;;;;6.47;2.97;;;15.70;59.90;;;;;;5090409;28;20218;-58
2022/05/22 02:35:37;;;;;;;6.40;2.65;;;15.70;59.90;;;;;;5091237;28;20195;-58
2022/05/22 02:38:10;;;;;;;8.43;2.92;;;15.80;59.90;;;;;;5091478;28;20263;-58
2022/05/22 02:40:41;;;;;;;5.43;2.53;;;15.80;59.80;;;;;;5090825;28;20186;-58
2022/05/22 02:43:12;;;;;;;5.70;2.80;;;15.80;59.80;;;;;;5090988;28;20261;-58
2022/05/22 02:45:43;;;;;;;5.82;2.47;;;15.80;59.70;;;;;;5089482;28;20319;-57
2022/05/22 02:48:13;;;;;;;5.47;2.63;;;15.90;59.70;;;;;;5090891;28;20194;-58
2022/05/22 02:50:47;;;;;;;6.22;3.20;;;15.90;60.20;;;;;;5090430;28;20186;-58
2022/05/22 02:53:19;;;;;;;6.20;2.75;;;15.90;59.50;;;;;;5090450;28;20283;-58
2022/05/22 02:55:49;;;;;;;6.88;2.67;;;16.00;59.50;;;;;;5090066;28;20267;-58
2022/05/22 02:58:20;;;;;;;5.70;2.38;;;16.00;59.50;;;;;;5091055;28;20252;-58
2022/05/22 03:00:51;;;;;;;5.03;2.50;;;16.10;59.50;;;;;;5090475;28;20214;-58
2022/05/22 03:03:21;;;;;;;6.80;2.70;;;16.10;59.40;;;;;;5089939;28;20210;-57
2022/05/22 03:08:45;;;;;;;11.98;3.33;;;16.20;60.00;;;;;;5079260;28;20569;-58
2022/05/22 03:11:16;;;;;;;11.57;3.40;;;16.20;60.30;;;;;;5090854;28;20186;-56
2022/05/22 03:13:46;;;;;;;10.70;3.55;;;16.30;60.70;;;;;;5089696;28;20230;-57
2022/05/22 03:16:17;;;;;;;8.52;3.50;;;16.40;60.90;;;;;;5089321;28;20203;-57
2022/05/22 03:18:48;;;;;;;10.65;3.67;;;16.40;61.20;;;;;;5089778;28;20205;-53
2022/05/22 03:21:18;;;;;;;13.50;3.97;;;16.50;61.10;;;;;;5090443;28;20244;-58
2022/05/22 03:23:50;;;;;;;13.02;3.85;;;16.60;61.00;;;;;;5089214;28;20319;-58
2022/05/22 03:26:21;;;;;;;13.02;3.33;;;16.60;60.70;;;;;;5090093;28;20194;-58
2022/05/22 03:28:51;;;;;;;10.68;3.63;;;16.70;60.70;;;;;;5089432;28;20191;-57
2022/05/22 03:31:22;;;;;;;8.77;3.88;;;16.80;60.60;;;;;;5090191;28;20186;-58
2022/05/22 03:33:52;;;;;;;10.55;3.25;;;16.80;60.50;;;;;;5090409;28;20283;-57
2022/05/22 03:36:23;;;;;;;7.63;3.50;;;16.80;60.40;;;;;;5089355;28;20190;-58
2022/05/22 03:38:55;;;;;;;9.23;3.70;;;16.90;60.30;;;;;;5089578;28;20198;-57
2022/05/22 03:41:26;;;;;;;7.88;3.60;;;16.90;60.20;;;;;;5089879;28;20190;-58
2022/05/22 03:43:57;;;;;;;11.63;4.15;;;17.00;60.20;;;;;;5089733;28;20240;-58
2022/05/22 03:46:27;;;;;;;9.82;3.92;;;17.00;60.10;;;;;;5089458;28;20194;-57
2022/05/22 03:48:58;;;;;;;10.10;3.72;;;17.00;59.90;;;;;;5090010;28;20247;-58
2022/05/22 03:51:29;;;;;;;10.10;4.13;;;17.00;59.80;;;;;;5089005;28;20286;-58
2022/05/22 03:54:01;;;;;;;9.27;3.63;;;17.10;59.80;;;;;;5089722;28;20707;-57
2022/05/22 03:56:32;;;;;;;10.63;4.40;;;17.10;59.70;;;;;;5090287;28;20186;-58
2022/05/22 03:59:02;;;;;;;8.23;4.25;;;17.10;59.60;;;;;;5088662;28;20190;-57
2022/05/22 04:01:33;;;;;;;9.05;3.97;;;17.10;59.50;;;;;;5089319;28;20252;-57
2022/05/22 04:04:04;;;;;;;12.13;4.20;;;17.10;59.50;;;;;;5088559;28;20335;-58
2022/05/22 04:06:34;;;;;;;10.23;4.18;;;17.20;59.60;;;;;;5089241;28;20247;-57
2022/05/22 04:09:08;;;;;;;9.93;4.03;;;17.20;59.50;;;;;;5088853;28;20297;-58
2022/05/22 04:11:42;;;;;;;9.35;3.97;;;17.20;59.40;;;;;;5088799;28;20218;-59
2022/05/22 04:14:13;;;;;;;11.65;5.20;;;17.20;59.40;;;;;;5088450;28;20228;-58
2022/05/22 04:16:44;;;;;;;10.90;5.18;;;17.30;59.30;;;;;;5089659;28;20602;-59
2022/05/22 04:19:15;;;;;;;12.95;4.93;;;17.30;59.40;;;;;;5088995;28;20186;-59
2022/05/22 04:21:46;;;;;;;8.90;5.32;;;17.30;59.40;;;;;;5084146;28;20190;-59
2022/05/22 04:27:06;;;;;;;9.30;4.28;;;17.40;59.20;;;;;;5086447;28;20328;-58
2022/05/22 04:29:38;;;;;;;8.88;5.07;;;17.40;59.10;;;;;;5085275;28;20275;-59
2022/05/22 04:32:09;;;;;;;10.63;5.00;;;17.40;59.10;;;;;;5083548;28;20287;-59
2022/05/22 04:34:40;;;;;;;14.52;4.97;;;17.40;59.10;;;;;;5086468;28;20238;-58
2022/05/22 04:37:10;;;;;;;9.10;5.13;;;17.40;59.10;;;;;;5088488;28;20284;-58
2022/05/22 04:39:43;;;;;;;9.63;5.00;;;17.40;59.10;;;;;;5087140;28;20607;-58
2022/05/22 04:42:13;;;;;;;9.73;4.90;;;17.40;59.10;;;;;;5085784;28;20272;-58
2022/05/22 04:44:44;;;;;;;11.95;5.18;;;17.40;59.00;;;;;;5086858;28;20694;-58
2022/05/22 04:47:15;;;;;;;8.38;4.15;;;17.40;58.90;;;;;;5086121;28;20241;-58
2022/05/22 04:49:45;;;;;;;10.10;4.65;;;17.40;58.90;;;;;;5086848;28;20245;-58
2022/05/22 04:52:16;;;;;;;8.43;4.53;;;17.40;58.80;;;;;;5087866;28;20190;-58
2022/05/22 04:54:48;;;;;;;7.50;4.18;;;17.40;58.80;;;;;;5085561;28;20221;-58
2022/05/22 04:57:18;;;;;;;9.10;4.22;;;17.40;58.80;;;;;;5088055;28;20546;-58
2022/05/22 04:59:49;;;;;;;8.82;4.03;;;17.40;58.80;;;;;;5085713;28;20240;-59
2022/05/22 05:02:19;;;;;;;6.82;4.07;;;17.40;58.80;;;;;;5086559;28;20191;-59
2022/05/22 05:04:50;;;;;;;6.18;3.85;;;17.40;58.70;;;;;;5083817;28;20308;-59
2022/05/22 05:07:21;;;;;;;7.03;4.00;;;17.50;58.70;;;;;;5083193;28;20819;-59
2022/05/22 05:09:53;;;;;;;7.75;4.15;;;17.40;58.70;;;;;;5087602;28;20248;-59
2022/05/22 05:12:24;;;;;;;8.00;4.22;;;17.40;58.60;;;;;;5084017;28;20271;-58
2022/05/22 05:14:54;;;;;;;7.18;4.60;;;17.40;58.60;;;;;;5085683;28;20225;-59
2022/05/22 05:17:25;;;;;;;7.70;4.20;;;17.40;58.60;;;;;;5086501;28;20194;-59
2022/05/22 05:19:55;;;;;;;10.10;4.25;;;17.40;58.50;;;;;;5085352;28;20190;-59
2022/05/22 05:22:26;;;;;;;7.38;4.15;;;17.40;58.50;;;;;;5087208;28;20186;-59
2022/05/22 05:24:58;;;;;;;6.70;4.03;;;17.40;58.50;;;;;;5086290;28;20218;-59
2022/05/22 05:27:29;;;;;;;6.35;4.00;;;17.40;58.40;;;;;;5084093;28;20222;-58
2022/05/22 05:29:59;;;;;;;7.95;4.03;;;17.40;58.40;;;;;;5085452;28;20661;-59
2022/05/22 05:32:30;;;;;;;7.85;4.53;;;17.40;58.40;;;;;;5085953;28;20267;-59
2022/05/22 05:35:01;;;;;;;6.95;3.97;;;17.30;58.30;;;;;;5088039;28;20255;-59
2022/05/22 05:37:32;;;;;;;6.53;3.83;;;17.30;58.30;;;;;;5092412;28;20190;-59
2022/05/22 05:40:05;;;;;;;6.40;3.72;;;17.30;58.30;;;;;;5092003;28;20194;-58
2022/05/22 05:42:36;;;;;;;7.30;3.65;;;17.30;58.30;;;;;;5092123;28;20225;-58
2022/05/22 05:45:08;;;;;;;7.60;3.83;;;17.30;58.30;;;;;;5091786;28;20271;-59
2022/05/22 05:47:39;;;;;;;6.35;3.97;;;17.30;58.30;;;;;;5092247;28;20252;-58
2022/05/22 05:50:11;;;;;;;7.72;3.92;;;17.30;58.30;;;;;;5090809;28;20723;-59
2022/05/22 05:52:41;;;;;;;6.82;4.18;;;17.30;58.30;;;;;;5092061;28;20214;-59
2022/05/22 05:55:14;;;;;;;6.35;3.97;;;17.30;58.30;;;;;;5090031;28;20282;-59
2022/05/22 05:57:44;;;;;;;6.78;3.90;;;17.30;58.20;;;;;;5090066;28;20190;-58
2022/05/22 06:00:17;;;;;;;8.52;4.15;;;17.20;58.10;;;;;;5089179;28;21378;-59
2022/05/22 06:02:48;;;;;;;5.47;3.80;;;17.20;58.10;;;;;;5090429;28;20206;-58
2022/05/22 06:05:19;;;;;;;6.13;3.50;;;17.20;58.00;;;;;;5087348;28;20222;-58
2022/05/22 06:07:53;;;;;;;5.97;3.72;;;17.20;58.00;;;;;;5087142;28;20225;-58
2022/05/22 06:10:25;;;;;;;6.53;3.90;;;17.20;58.00;;;;;;5087265;28;20850;-58
2022/05/22 06:12:56;;;;;;;5.43;4.53;;;17.20;58.00;;;;;;5087549;28;20753;-58
2022/05/22 06:15:26;;;;;;;5.95;3.72;;;17.10;57.90;;;;;;5085637;28;20221;-58
2022/05/22 06:17:58;;;;;;;5.47;3.65;;;17.10;57.90;;;;;;5088697;28;20198;-59
2022/05/22 06:20:29;;;;;;;6.93;3.88;;;17.10;58.00;;;;;;5086206;28;20653;-58
2022/05/22 06:22:59;;;;;;;7.00;3.92;;;17.10;58.00;;;;;;5088129;28;20210;-58
2022/05/22 06:25:33;;;;;;;6.05;3.60;;;17.10;58.10;;;;;;5089116;28;20794;-58
2022/05/22 06:28:03;;;;;;;4.85;3.80;;;17.00;58.10;;;;;;5087363;28;20259;-58
2022/05/22 06:30:34;;;;;;;6.28;3.92;;;17.10;58.10;;;;;;5087606;28;20306;-58
2022/05/22 06:33:10;;;;;;;6.63;3.65;;;17.00;58.10;;;;;;5087656;28;20249;-58
2022/05/22 06:35:42;;;;;;;5.55;3.33;;;17.00;58.00;;;;;;5087788;28;20757;-58
2022/05/22 06:39:49;;;;;;;6.38;4.10;;;17.00;58.00;;;;;;5089283;28;20190;-58
2022/05/22 06:41:09;;;;;;;7.90;3.63;;;17.00;58.00;;;;;;5085193;28;20190;-58
2022/05/22 06:43:40;;;;;;;7.65;3.88;;;17.00;57.90;;;;;;5086177;28;20221;-58
2022/05/22 06:46:11;;;;;;;6.93;3.78;;;17.00;57.90;;;;;;5085580;28;20253;-58
2022/05/22 06:48:41;;;;;;;5.80;3.50;;;17.00;57.90;;;;;;5086582;28;20255;-58
2022/05/22 06:51:12;;;;;;;4.75;3.38;;;16.90;57.90;;;;;;5087512;28;20198;-58
2022/05/22 06:53:42;;;;;;;6.18;3.15;;;16.90;57.90;;;;;;5086740;28;20275;-58
2022/05/22 06:56:15;;;;;;;6.20;3.88;;;16.90;57.90;;;;;;5088207;28;20243;-58
2022/05/22 06:58:45;;;;;;;6.40;3.90;;;16.90;57.90;;;;;;5089272;28;20194;-58
2022/05/22 07:01:18;;;;;;;4.60;3.28;;;16.90;57.90;;;;;;5086155;28;20229;-58
2022/05/22 07:03:48;;;;;;;5.60;3.33;;;16.90;57.90;;;;;;5085489;28;20271;-58
2022/05/22 07:06:19;;;;;;;5.97;3.40;;;16.80;58.40;;;;;;5087040;28;20218;-58
2022/05/22 07:08:49;;;;;;;5.55;3.58;;;16.80;57.80;;;;;;5089204;28;20190;-58
2022/05/22 07:14:08;;;;;;;5.28;3.22;;;16.80;57.80;;;;;;5088510;28;20299;-58
2022/05/22 07:16:40;;;;;;;3.40;3.10;;;16.80;57.80;;;;;;5087024;28;20224;-58
2022/05/22 07:19:12;;;;;;;3.95;2.88;;;16.80;57.80;;;;;;5088436;28;20198;-58
2022/05/22 07:21:44;;;;;;;5.47;3.80;;;16.80;57.80;;;;;;5084742;28;20194;-59
2022/05/22 07:24:15;;;;;;;5.25;3.08;;;16.70;57.80;;;;;;5086344;28;20632;-58
2022/05/22 07:26:47;;;;;;;5.15;2.92;;;16.70;57.80;;;;;;5086137;28;20250;-58
2022/05/22 07:29:18;;;;;;;4.40;2.90;;;16.70;57.70;;;;;;5088253;28;20244;-58
2022/05/22 07:31:48;;;;;;;5.63;3.40;;;16.70;57.70;;;;;;5085720;28;20722;-58
2022/05/22 07:34:19;;;;;;;5.13;3.33;;;16.70;57.70;;;;;;5085298;28;20281;-58
2022/05/22 07:36:50;;;;;;;5.68;3.22;;;16.70;57.70;;;;;;5084043;28;20252;-58
2022/05/22 07:39:20;;;;;;;4.78;3.10;;;16.70;57.70;;;;;;5085684;28;20193;-58
2022/05/22 07:41:52;;;;;;;4.68;2.97;;;16.70;57.70;;;;;;5088078;28;20186;-58
2022/05/22 07:44:23;;;;;;;5.95;3.15;;;16.70;57.70;;;;;;5087431;28;20263;-58
2022/05/22 07:46:54;;;;;;;3.78;2.90;;;16.70;57.70;;;;;;5085894;28;20250;-58
2022/05/22 07:52:13;;;;;;;3.47;3.10;;;16.60;57.70;;;;;;5083932;28;20824;-58
2022/05/22 07:54:44;;;;;;;3.25;2.85;;;16.60;57.60;;;;;;5087070;28;20213;-58
2022/05/22 07:57:16;;;;;;;3.38;2.92;;;16.60;57.70;;;;;;5086432;28;20221;-58
2022/05/22 07:59:47;;;;;;;3.42;2.55;;;16.60;57.70;;;;;;5085297;28;20186;-58
2022/05/22 08:02:17;;;;;;;4.05;2.90;;;16.60;57.70;;;;;;5086221;28;20209;-58
2022/05/22 08:04:48;;;;;;;2.83;2.40;;;16.60;57.70;;;;;;5085452;28;20294;-58
2022/05/22 08:07:18;;;;;;;4.15;2.95;;;16.50;57.70;;;;;;5084220;28;20222;-58
2022/05/22 08:09:50;;;;;;;3.55;2.60;;;16.50;58.00;;;;;;5086743;28;20190;-58
2022/05/22 08:12:22;;;;;;;3.78;2.90;;;16.50;58.00;;;;;;5083664;28;20708;-58
2022/05/22 08:14:53;;;;;;;4.97;2.70;;;16.50;57.90;;;;;;5083639;28;20240;-58
2022/05/22 08:17:23;;;;;;;3.60;2.75;;;16.50;57.90;;;;;;5083274;28;20230;-58
2022/05/22 08:19:54;;;;;;;3.72;2.75;;;16.50;58.50;;;;;;5085727;28;20186;-58
2022/05/22 08:22:24;;;;;;;3.42;2.92;;;16.50;57.90;;;;;;5084581;28;20187;-58
2022/05/22 08:24:55;;;;;;;3.47;2.90;;;16.50;57.90;;;;;;5086399;28;20267;-58
2022/05/22 08:27:27;;;;;;;4.50;2.78;;;16.50;57.80;;;;;;5085490;28;20199;-58
2022/05/22 08:29:58;;;;;;;4.03;2.85;;;16.50;57.80;;;;;;5084320;28;20244;-58
2022/05/22 08:32:29;;;;;;;4.53;2.72;;;16.50;57.80;;;;;;5086888;28;20743;-59
2022/05/22 08:35:00;;;;;;;4.90;3.10;;;16.50;57.80;;;;;;5084548;28;20187;-58
2022/05/22 08:37:30;;;;;;;4.22;2.60;;;16.40;57.70;;;;;;5084228;28;20253;-58
2022/05/22 08:40:01;;;;;;;3.60;2.60;;;16.40;57.70;;;;;;5085567;28;20194;-58
2022/05/22 08:42:41;;;;;;;3.08;2.40;;;16.40;57.70;;;;;;5085008;28;20674;-58
2022/05/22 08:45:17;;;;;;;4.55;3.00;;;16.40;57.70;;;;;;5087020;28;20282;-58
2022/05/22 08:47:59;;;;;;;4.93;2.97;;;16.40;57.70;;;;;;5087299;28;20612;-58
2022/05/22 08:50:32;;;;;;;4.32;2.70;;;16.40;57.70;;;;;;5082674;28;20211;-58
2022/05/22 08:53:08;;;;;;;3.63;2.70;;;16.40;57.70;;;;;;5085801;28;20341;-58
2022/05/22 09:01:32;;;;;;;3.65;3.00;;;16.40;58.10;;;;;;5085579;28;20193;-58
2022/05/22 09:04:12;;;;;;;2.95;2.60;;;16.40;58.00;;;;;;5083626;28;20773;-58
2022/05/22 09:06:47;;;;;;;3.90;2.53;;;16.40;58.10;;;;;;5080662;28;20218;-58
2022/05/22 09:09:17;;;;;;;3.63;2.58;;;16.30;58.10;;;;;;5082224;28;20190;-58
2022/05/22 09:12:02;;;;;;;4.03;3.03;;;16.40;58.10;;;;;;5082318;28;20275;-58
2022/05/22 09:14:42;;;;;;;5.05;2.97;;;16.30;58.10;;;;;;5083657;28;20299;-58
2022/05/22 09:17:17;;;;;;;4.35;3.40;;;16.30;58.10;;;;;;5081944;28;20229;-58
2022/05/22 09:19:52;;;;;;;3.85;2.85;;;16.30;58.00;;;;;;5088004;28;20186;-58
2022/05/22 09:22:30;;;;;;;4.57;3.15;;;16.30;58.00;;;;;;5086217;28;20189;-58
2022/05/22 09:25:14;;;;;;;3.58;2.55;;;16.40;58.10;;;;;;5085307;28;20193;-58
2022/05/22 09:27:51;;;;;;;4.07;2.67;;;16.30;58.00;;;;;;5085681;28;20190;-58
2022/05/22 09:30:32;;;;;;;3.63;2.83;;;16.30;58.00;;;;;;5087122;28;20229;-60
2022/05/22 09:33:14;;;;;;;5.05;3.28;;;16.30;58.00;;;;;;5084100;28;20245;-58
2022/05/22 09:35:57;;;;;;;5.22;3.45;;;16.30;58.00;;;;;;5086908;28;20198;-58
2022/05/22 09:38:46;;;;;;;5.60;3.65;;;16.30;58.00;;;;;;5087646;28;20225;-60
2022/05/22 09:41:27;;;;;;;5.45;3.45;;;16.30;58.00;;;;;;5085776;28;20190;-58
2022/05/22 09:44:24;;;;;;;4.28;3.28;;;16.30;58.60;;;;;;5085924;28;20247;-58
2022/05/22 09:47:21;;;;;;;6.30;3.60;;;16.20;58.00;;;;;;5086842;28;20245;-59
2022/05/22 09:50:04;;;;;;;5.82;3.58;;;16.20;57.90;;;;;;5086348;28;20287;-58
2022/05/22 09:52:42;;;;;;;5.60;3.33;;;16.30;58.00;;;;;;5088059;28;20198;-58
2022/05/22 09:55:25;;;;;;;5.22;3.35;;;16.30;58.00;;;;;;5086193;28;20197;-57
2022/05/22 09:58:19;;;;;;;4.68;3.40;;;16.20;58.00;;;;;;5084561;28;20198;-57
2022/05/22 10:00:54;;;;;;;5.80;3.83;;;16.20;58.00;;;;;;5087230;28;20198;-56
2022/05/22 10:03:35;;;;;;;6.35;3.90;;;16.20;57.90;;;;;;5087720;28;20677;-57
2022/05/22 10:06:15;;;;;;;4.32;3.15;;;16.20;57.90;;;;;;5087317;28;20279;-57
2022/05/22 10:08:57;;;;;;;5.90;3.72;;;16.20;58.00;;;;;;5086676;28;20268;-56
2022/05/22 10:11:34;;;;;;;5.32;4.07;;;16.20;58.00;;;;;;5087677;28;20230;-57
2022/05/22 10:14:21;;;;;;;4.47;3.70;;;16.20;58.00;;;;;;5087912;28;20242;-57
2022/05/22 10:17:03;;;;;;;5.28;3.78;;;16.20;58.00;;;;;;5086148;28;20342;-56
2022/05/22 10:19:48;;;;;;;3.97;3.50;;;16.10;57.90;;;;;;5088016;28;20557;-56
2022/05/22 10:22:31;;;;;;;4.40;3.47;;;16.20;58.10;;;;;;5090242;28;20235;-56
2022/05/22 10:25:24;;;;;;;5.82;3.75;;;16.10;58.00;;;;;;5091208;28;20186;-57
2022/05/22 10:27:58;;;;;;;6.85;3.85;;;16.10;58.00;;;;;;5091749;28;20194;-57
2022/05/22 10:30:33;;;;;;;5.57;3.65;;;16.10;58.00;;;;;;5091678;28;20198;-57
2022/05/22 10:33:06;;;;;;;5.82;3.47;;;16.10;58.10;;;;;;5090773;28;20777;-56
2022/05/22 10:35:47;;;;;;;4.63;3.75;;;16.10;58.10;;;;;;5090645;28;20198;-56
2022/05/22 10:38:21;;;;;;;6.15;3.35;;;16.10;58.10;;;;;;5079990;28;20851;-57
2022/05/22 10:43:44;;;;;;;5.00;3.83;;;16.10;58.00;;;;;;5090988;28;20228;-57
2022/05/22 10:46:14;;;;;;;4.43;3.17;;;16.10;58.10;;;;;;5088327;28;20218;-56
2022/05/22 10:48:55;;;;;;;4.80;3.38;;;16.10;58.00;;;;;;5091397;28;20668;-56
2022/05/22 10:51:29;;;;;;;4.97;3.50;;;16.10;58.10;;;;;;5090766;28;20261;-56
2022/05/22 10:54:01;;;;;;;4.72;3.50;;;16.10;58.70;;;;;;5090942;28;20213;-57
2022/05/22 10:56:33;;;;;;;5.35;3.47;;;16.10;58.10;;;;;;5090782;28;20623;-57
2022/05/22 10:59:05;;;;;;;6.03;3.70;;;16.10;58.10;;;;;;5090112;28;20190;-56
2022/05/22 11:01:38;;;;;;;4.30;3.50;;;16.10;58.10;;;;;;5079573;28;20609;-56
2022/05/22 11:04:10;;;;;;;5.32;3.38;;;16.10;58.10;;;;;;5072409;28;20215;-56
2022/05/22 11:06:55;;;;;;;5.55;4.07;;;16.10;58.20;;;;;;5072286;28;20239;-59
2022/05/22 11:09:28;;;;;;;6.05;3.50;;;16.10;58.20;;;;;;5071931;28;20217;-57
2022/05/22 11:12:08;;;;;;;5.65;3.72;;;16.10;58.20;;;;;;5071960;28;20227;-57
2022/05/22 11:14:39;;;;;;;4.00;3.28;;;16.10;58.30;;;;;;5071775;28;20207;-57
2022/05/22 11:17:16;;;;;;;5.00;3.38;;;16.10;58.20;;;;;;5070976;28;20195;-57
2022/05/22 11:19:48;;;;;;;4.53;3.60;;;16.10;58.30;;;;;;5071886;28;20190;-57
2022/05/22 11:22:31;;;;;;;4.20;3.22;;;16.00;58.20;;;;;;5071828;28;20287;-57
2022/05/22 11:25:11;;;;;;;4.38;3.10;;;16.10;58.30;;;;;;5070714;28;20191;-56
2022/05/22 11:27:54;;;;;;;5.78;3.58;;;16.00;58.20;;;;;;5071100;28;20218;-57
2022/05/22 11:30:37;;;;;;;5.88;3.58;;;16.00;58.20;;;;;;5071771;28;20199;-58
2022/05/22 11:33:37;;;;;;;5.03;3.22;;;16.00;58.20;;;;;;5051471;28;20255;-57
2022/05/22 11:36:21;;;;;;;4.75;3.40;;;16.00;58.20;;;;;;5049150;28;20230;-57
2022/05/22 11:39:05;;;;;;;4.72;3.20;;;16.00;58.20;;;;;;5070172;28;20791;-57
2022/05/22 11:41:38;;;;;;;5.82;3.08;;;16.00;58.20;;;;;;5071474;28;20229;-57
2022/05/22 11:44:41;;;;;;;5.05;3.20;;;16.00;58.20;;;;;;5071229;28;20215;-58
2022/05/22 11:47:31;;;;;;;3.97;2.97;;;16.00;58.30;;;;;;5071137;28;20226;-57
2022/05/22 11:50:11;;;;;;;4.63;3.10;;;16.00;58.20;;;;;;5071216;28;20641;-58
2022/05/22 11:52:58;;;;;;;3.97;2.90;;;16.00;58.30;;;;;;5071996;28;20215;-57
2022/05/22 11:55:46;;;;;;;4.38;3.30;;;16.00;58.30;;;;;;5071191;28;20198;-57
2022/05/22 11:58:28;;;;;;;4.13;2.63;;;15.90;58.30;;;;;;5071562;28;20195;-57
2022/05/22 12:01:07;;;;;;;4.57;3.15;;;16.00;58.40;;;;;;5070860;28;20187;-57
2022/05/22 12:04:17;;;;;;;3.70;2.95;;;16.00;58.40;;;;;;5070787;28;20287;-58
2022/05/22 12:06:58;;;;;;;3.83;2.95;;;15.90;58.30;;;;;;5031627;28;20211;-58
2022/05/22 12:09:42;;;;;;;3.63;2.92;;;15.90;58.30;;;;;;5070909;28;20202;-57
2022/05/22 12:12:24;;;;;;;4.47;2.90;;;16.00;58.40;;;;;;5070355;28;20234;-57
2022/05/22 12:15:04;;;;;;;4.50;3.00;;;15.90;58.30;;;;;;5070149;28;20204;-57
2022/05/22 12:17:41;;;;;;;3.33;2.85;;;16.00;58.30;;;;;;5070002;28;20248;-57
2022/05/22 12:20:19;;;;;;;3.72;2.60;;;16.00;58.40;;;;;;5070573;28;20194;-57
2022/05/22 12:23:12;;;;;;;3.60;2.35;;;15.90;58.20;;;;;;5070598;28;20246;-58
2022/05/22 12:25:46;;;;;;;3.78;2.65;;;15.90;58.20;;;;;;5070319;28;20634;-57
2022/05/22 12:28:40;;;;;;;3.92;2.83;;;15.90;58.20;;;;;;5070182;28;20261;-59
2022/05/22 12:31:14;;;;;;;4.35;2.85;;;15.90;58.30;;;;;;5070085;28;20199;-59
2022/05/22 12:33:48;;;;;;;2.97;2.30;;;15.90;58.20;;;;;;5070315;28;20218;-57
2022/05/22 12:36:25;;;;;;;3.80;2.80;;;15.90;58.20;;;;;;5070419;28;20248;-57
2022/05/22 12:39:02;;;;;;;3.47;2.58;;;15.90;58.20;;;;;;5070432;28;20558;-56
2022/05/22 12:41:47;;;;;;;3.63;2.63;;;15.80;58.20;;;;;;5069602;28;20194;-56
2022/05/22 12:44:20;;;;;;;3.88;2.35;;;15.90;58.20;;;;;;5069086;28;20254;-57
2022/05/22 12:46:51;;;;;;;3.10;2.22;;;15.80;58.20;;;;;;5069622;28;20283;-56
2022/05/22 12:49:27;;;;;;;2.92;2.38;;;15.80;58.20;;;;;;5070084;28;20198;-56
2022/05/22 12:52:03;;;;;;;3.33;2.42;;;15.80;58.30;;;;;;5070727;28;20267;-57
2022/05/22 12:54:35;;;;;;;3.47;2.38;;;15.80;58.20;;;;;;5069813;28;20211;-56
2022/05/22 12:57:22;;;;;;;3.35;2.28;;;15.80;58.20;;;;;;5070088;28;20194;-56
2022/05/22 13:00:03;;;;;;;4.20;2.50;;;15.80;58.30;;;;;;5070074;28;20209;-57
2022/05/22 13:02:50;;;;;;;3.65;2.55;;;15.80;58.20;;;;;;5069123;28;20202;-56
2022/05/22 13:05:28;;;;;;;2.63;2.05;;;15.80;58.20;;;;;;5069219;28;20198;-56
2022/05/22 13:07:59;;;;;;;3.80;2.40;;;15.80;58.20;;;;;;5069310;28;20260;-56
2022/05/22 13:10:48;;;;;;;3.22;2.40;;;15.80;58.20;;;;;;5069221;28;20238;-54
2022/05/22 13:13:28;;;;;;;2.55;2.08;;;15.80;58.20;;;;;;5069598;28;20217;-55
2022/05/22 13:16:06;;;;;;;3.22;2.20;;;15.80;58.20;;;;;;5069760;28;20198;-56
2022/05/22 13:18:46;;;;;;;2.50;2.05;;;15.70;58.10;;;;;;5068972;28;20202;-52
2022/05/22 13:21:32;;;;;;;3.20;2.55;;;15.70;58.10;;;;;;5068749;28;20720;-54
2022/05/22 13:24:07;;;;;;;2.70;2.33;;;15.70;58.10;;;;;;5068704;28;20215;-53
2022/05/22 13:26:37;;;;;;;3.40;2.50;;;15.70;58.10;;;;;;5068850;28;20210;-54
2022/05/22 13:29:19;;;;;;;2.65;2.00;;;15.70;58.20;;;;;;5069271;28;20191;-56
2022/05/22 13:31:54;;;;;;;2.83;2.00;;;15.70;58.20;;;;;;5068999;28;20233;-54
2022/05/22 13:34:30;;;;;;;3.08;2.33;;;15.70;58.20;;;;;;5069325;28;20288;-56
2022/05/22 13:37:03;;;;;;;2.88;2.25;;;15.60;58.10;;;;;;5069187;28;20235;-56
2022/05/22 13:39:53;;;;;;;3.67;2.25;;;15.60;58.10;;;;;;5069000;28;20190;-55
2022/05/22 13:43:07;;;;;;;3.47;2.10;;;15.60;58.20;;;;;;5067289;28;20198;-53
2022/05/22 13:46:33;;;;;;;3.00;2.05;;;15.60;58.10;;;;;;5069639;28;20264;-55
2022/05/22 13:49:37;;;;;;;2.78;2.00;;;15.60;58.10;;;;;;5049523;28;20195;-56